createdAt,value
2022-09-15T03:45:17.747Z,99.99
2022-09-15T03:46:18.708Z,99.99
2022-09-15T03:47:18.666Z,99.99
2022-09-15T03:48:18.667Z,99.99
2022-09-15T03:49:18.641Z,99.99
2022-09-15T03:51:10.955Z,99.99
2022-09-15T03:52:11.901Z,99.99
2022-09-15T03:53:11.897Z,99.99
2022-09-15T03:54:11.889Z,99.99
2022-09-15T03:55:11.862Z,99.99
2022-09-15T03:56:11.877Z,99.99
2022-09-15T03:57:11.862Z,99.99
2022-09-15T03:58:11.837Z,99.99
2022-09-15T03:59:11.830Z,99.99
2022-09-15T04:00:11.803Z,99.99
2022-09-15T04:01:11.840Z,99.99
2022-09-15T04:02:11.855Z,99.99
2022-09-15T04:03:11.780Z,99.99
2022-09-15T04:04:11.774Z,99.99
2022-09-15T04:05:18.279Z,99.99
2022-09-15T04:06:11.736Z,99.99
2022-09-15T04:07:11.737Z,99.99
2022-09-15T04:08:11.734Z,99.99
2022-09-15T04:09:11.764Z,99.99
2022-09-15T04:10:11.719Z,99.99
2022-09-15T04:11:11.686Z,99.99
2022-09-15T04:12:11.693Z,99.99
2022-09-15T04:13:11.664Z,99.99
2022-09-15T04:14:11.664Z,99.99
2022-09-15T04:15:11.641Z,99.99
2022-09-15T04:16:11.696Z,99.99
2022-09-15T04:17:11.621Z,99.99
2022-09-15T04:18:11.612Z,99.99
2022-09-15T04:19:11.606Z,99.99
2022-09-15T04:20:11.586Z,99.99
2022-09-15T04:21:11.568Z,99.99
2022-09-15T04:22:17.005Z,99.99
2022-09-15T04:23:11.560Z,99.99
2022-09-15T04:24:11.560Z,99.99
2022-09-15T04:25:11.525Z,99.99
2022-09-15T04:26:11.521Z,99.99
2022-09-15T04:27:11.517Z,99.99
2022-09-15T04:28:11.499Z,99.99
2022-09-15T04:29:11.493Z,99.99
2022-09-15T04:30:11.468Z,99.99
2022-09-15T04:31:11.517Z,99.99
2022-09-15T04:32:11.453Z,99.99
2022-09-15T04:33:11.453Z,99.99
2022-09-15T04:34:11.430Z,99.99
2022-09-15T04:35:11.423Z,99.99
2022-09-15T04:36:11.418Z,99.99
2022-09-15T04:37:11.389Z,99.99
2022-09-15T04:38:11.382Z,99.99
2022-09-15T04:39:11.391Z,99.99
2022-09-15T04:40:11.456Z,99.99
2022-09-15T04:41:11.382Z,99.99
2022-09-15T04:42:11.420Z,99.99
2022-09-15T04:43:11.342Z,99.99
2022-09-15T04:44:11.349Z,99.99
2022-09-15T04:45:11.345Z,99.99
2022-09-15T04:46:11.448Z,99.99
2022-09-15T04:47:11.319Z,99.99
2022-09-15T04:48:11.276Z,99.99
2022-09-15T04:49:11.323Z,99.99
2022-09-15T04:50:11.242Z,99.99
2022-09-15T04:51:11.262Z,99.99
2022-09-15T04:52:11.222Z,99.99
2022-09-15T04:53:11.221Z,99.99
2022-09-15T04:54:11.208Z,99.99
2022-09-15T04:55:11.199Z,99.99
2022-09-15T04:56:11.185Z,99.99
2022-09-15T04:57:11.175Z,99.99
2022-09-15T04:58:11.202Z,99.99
2022-09-15T04:59:11.151Z,99.99
2022-09-15T05:00:11.160Z,99.99
2022-09-15T05:01:11.218Z,99.99
2022-09-15T05:02:11.171Z,99.99
2022-09-15T05:03:11.137Z,99.99
2022-09-15T05:04:11.112Z,99.99
2022-09-15T05:05:11.132Z,99.99
2022-09-15T05:06:11.077Z,99.99
2022-09-15T05:07:11.095Z,99.99
2022-09-15T05:08:11.059Z,99.99
2022-09-15T05:09:11.048Z,99.99
2022-09-15T05:10:11.060Z,99.99
2022-09-15T05:11:11.026Z,99.99
2022-09-15T05:12:11.025Z,99.99
2022-09-15T05:13:10.994Z,99.99
2022-09-15T05:14:10.994Z,99.99
2022-09-15T05:15:10.983Z,99.99
2022-09-15T05:16:11.068Z,99.99
2022-09-15T05:17:10.963Z,99.99
2022-09-15T05:18:11.002Z,99.99
2022-09-15T05:19:10.942Z,99.99
2022-09-15T05:20:10.935Z,99.99
2022-09-15T05:21:10.952Z,99.99
2022-09-15T05:22:10.926Z,99.99
2022-09-15T05:23:10.893Z,99.99
2022-09-15T05:24:10.881Z,99.99
2022-09-15T05:25:10.882Z,99.99
2022-09-15T05:26:10.870Z,99.99
2022-09-15T05:27:10.856Z,99.99
2022-09-15T05:28:10.853Z,99.99
2022-09-15T05:29:10.835Z,99.99
2022-09-15T05:30:36.015Z,99.99
2022-09-15T05:31:10.890Z,99.99
2022-09-15T05:32:10.797Z,99.99
2022-09-15T05:33:10.778Z,99.99
2022-09-15T05:34:10.779Z,99.99
2022-09-15T05:35:10.753Z,99.99
2022-09-15T05:36:10.796Z,99.99
2022-09-15T05:37:10.732Z,99.99
2022-09-15T05:38:10.733Z,99.99
2022-09-15T05:39:10.730Z,99.99
2022-09-15T05:40:10.721Z,99.99
2022-09-15T05:41:10.751Z,99.99
2022-09-15T05:42:10.712Z,99.99
2022-09-15T05:43:10.680Z,99.99
2022-09-15T05:44:10.655Z,99.99
2022-09-15T05:45:10.661Z,99.99
2022-09-15T05:46:10.684Z,99.99
2022-09-15T05:47:10.652Z,99.99
2022-09-15T05:48:10.646Z,99.99
2022-09-15T05:49:10.674Z,99.99
2022-09-15T05:50:10.592Z,99.99
2022-09-15T05:51:10.585Z,99.99
2022-09-15T05:52:10.605Z,99.99
2022-09-15T05:53:10.574Z,99.99
2022-09-15T05:54:10.562Z,99.99
2022-09-15T05:55:10.576Z,99.99
2022-09-15T05:56:10.575Z,99.99
2022-09-15T05:57:10.533Z,99.99
2022-09-15T05:58:10.517Z,99.99
2022-09-15T05:59:10.495Z,99.99
2022-09-15T06:00:10.517Z,99.99
2022-09-15T06:01:10.731Z,99.99
2022-09-15T06:02:10.650Z,99.99
2022-09-15T06:03:10.449Z,99.99
2022-09-15T06:04:10.436Z,99.99
2022-09-15T06:05:10.439Z,99.99
2022-09-15T06:06:10.446Z,99.99
2022-09-15T06:07:10.401Z,99.99
2022-09-15T06:08:10.389Z,99.99
2022-09-15T06:09:10.369Z,99.99
2022-09-15T06:10:10.364Z,99.99
2022-09-15T06:11:10.387Z,99.99
2022-09-15T06:12:10.382Z,99.99
2022-09-15T06:13:10.369Z,99.99
2022-09-15T06:14:10.323Z,99.99
2022-09-15T06:15:10.351Z,99.99
2022-09-15T06:16:10.524Z,99.99
2022-09-15T06:17:10.281Z,99.99
2022-09-15T06:18:10.904Z,99.99
2022-09-15T06:19:10.290Z,99.99
2022-09-15T06:20:10.298Z,99.99
2022-09-15T06:21:10.473Z,99.99
2022-09-15T06:22:10.799Z,99.99
2022-09-15T06:23:10.229Z,99.99
2022-09-15T06:24:11.355Z,99.99
2022-09-15T06:25:10.821Z,99.99
2022-09-15T06:26:10.204Z,99.99
2022-09-15T06:27:10.222Z,99.99
2022-09-15T06:28:10.177Z,99.99
2022-09-15T06:29:10.167Z,99.99
2022-09-15T06:30:10.148Z,99.99
2022-09-15T06:31:10.831Z,99.99
2022-09-15T06:32:11.707Z,99.99
2022-09-15T06:33:10.336Z,99.99
2022-09-15T06:34:10.850Z,99.99
2022-09-15T06:35:10.094Z,99.99
2022-09-15T06:36:10.137Z,99.99
2022-09-15T06:37:10.074Z,99.99
2022-09-15T06:38:10.071Z,99.99
2022-09-15T06:39:10.980Z,99.99
2022-09-15T06:40:10.097Z,99.99
2022-09-15T06:41:10.082Z,99.99
2022-09-15T06:42:13.687Z,99.99
2022-09-15T06:43:10.019Z,99.99
2022-09-15T06:44:10.003Z,99.99
2022-09-15T06:45:10.019Z,99.99
2022-09-15T06:46:10.009Z,99.99
2022-09-15T06:47:10.007Z,99.99
2022-09-15T06:48:24.078Z,99.99
2022-09-15T06:49:09.976Z,99.99
2022-09-15T06:50:09.977Z,99.99
2022-09-15T06:51:10.404Z,99.99
2022-09-15T06:52:10.161Z,99.99
2022-09-15T06:53:10.833Z,99.99
2022-09-15T06:54:12.225Z,99.96
2022-09-15T06:55:09.917Z,99.99
2022-09-15T06:56:09.870Z,99.99
2022-09-15T06:57:10.796Z,99.99
2022-09-15T06:58:09.849Z,99.81
2022-09-15T06:59:09.822Z,99.30
2022-09-15T07:00:09.854Z,98.90
2022-09-15T07:01:09.815Z,98.90
2022-09-15T07:02:09.948Z,98.39
2022-09-15T07:03:09.969Z,98.60
2022-09-15T07:04:09.807Z,98.19
2022-09-15T07:05:09.770Z,98.70
2022-09-15T07:06:09.740Z,98.65
2022-09-15T07:07:09.761Z,98.25
2022-09-15T07:08:09.993Z,98.05
2022-09-15T07:09:09.735Z,98.05
2022-09-15T07:10:10.327Z,97.94
2022-09-15T07:11:09.694Z,98.05
2022-09-15T07:12:09.701Z,97.69
2022-09-15T07:13:09.679Z,97.29
2022-09-15T07:14:09.710Z,97.19
2022-09-15T07:15:09.651Z,96.78
2022-09-15T07:16:09.703Z,96.48
2022-09-15T07:17:09.615Z,96.69
2022-09-15T07:18:09.621Z,96.69
2022-09-15T07:19:09.640Z,96.69
2022-09-15T07:20:09.603Z,95.87
2022-09-15T07:21:09.616Z,96.03
2022-09-15T07:22:09.626Z,96.23
2022-09-15T07:23:09.567Z,95.73
2022-09-15T07:24:09.551Z,96.03
2022-09-15T07:25:09.542Z,95.63
2022-09-15T07:26:09.538Z,95.53
2022-09-15T07:27:09.544Z,95.53
2022-09-15T07:28:09.515Z,95.43
2022-09-15T07:29:09.491Z,95.68
2022-09-15T07:30:09.483Z,95.68
2022-09-15T07:31:09.515Z,95.38
2022-09-15T07:32:09.517Z,95.38
2022-09-15T07:33:09.510Z,93.56
2022-09-15T07:34:09.675Z,94.27
2022-09-15T07:35:09.432Z,94.67
2022-09-15T07:36:09.422Z,94.98
2022-09-15T07:37:09.406Z,94.17
2022-09-15T07:38:09.428Z,94.98
2022-09-15T07:39:09.385Z,94.78
2022-09-15T07:40:09.423Z,94.67
2022-09-15T07:41:09.364Z,94.98
2022-09-15T07:42:09.363Z,94.98
2022-09-15T07:43:09.344Z,95.14
2022-09-15T07:44:09.326Z,94.32
2022-09-15T07:45:09.318Z,92.61
2022-09-15T07:46:09.336Z,91.90
2022-09-15T07:47:09.342Z,91.39
2022-09-15T07:48:09.270Z,90.89
2022-09-15T07:49:09.293Z,90.08
2022-09-15T07:50:09.289Z,89.98
2022-09-15T07:51:09.248Z,90.89
2022-09-15T07:52:09.239Z,90.45
2022-09-15T07:53:09.281Z,89.54
2022-09-15T07:54:09.227Z,89.43
2022-09-15T07:55:09.199Z,89.43
2022-09-15T07:56:09.189Z,89.94
2022-09-15T07:57:10.126Z,90.10
2022-09-15T07:58:09.169Z,90.00
2022-09-15T07:59:09.197Z,88.48
2022-09-15T08:00:09.159Z,88.45
2022-09-15T08:01:09.217Z,88.14
2022-09-15T08:02:09.195Z,88.20
2022-09-15T08:03:09.132Z,87.49
2022-09-15T08:04:09.094Z,87.49
2022-09-15T08:05:09.096Z,86.99
2022-09-15T08:06:09.082Z,87.90
2022-09-15T08:07:09.082Z,87.09
2022-09-15T08:08:09.062Z,87.49
2022-09-15T08:09:09.068Z,86.99
2022-09-15T08:10:09.034Z,87.03
2022-09-15T08:11:09.068Z,86.73
2022-09-15T08:12:09.227Z,86.99
2022-09-15T08:13:09.024Z,86.69
2022-09-15T08:14:08.993Z,86.89
2022-09-15T08:15:09.010Z,85.64
2022-09-15T08:16:09.135Z,86.65
2022-09-15T08:17:11.507Z,85.64
2022-09-15T08:18:09.849Z,84.49
2022-09-15T08:19:12.092Z,83.89
2022-09-15T08:20:08.926Z,84.94
2022-09-15T08:21:08.912Z,84.89
2022-09-15T08:22:08.904Z,84.03
2022-09-15T08:23:08.930Z,84.03
2022-09-15T08:24:08.934Z,84.43
2022-09-15T08:25:08.875Z,85.94
2022-09-15T08:26:13.606Z,84.33
2022-09-15T08:27:08.882Z,85.14
2022-09-15T08:28:08.824Z,85.84
2022-09-15T08:29:09.074Z,84.80
2022-09-15T08:30:08.824Z,84.80
2022-09-15T08:31:08.848Z,84.69
2022-09-15T08:32:08.779Z,82.98
2022-09-15T08:33:08.779Z,83.84
2022-09-15T08:34:08.768Z,83.11
2022-09-15T08:35:08.765Z,82.50
2022-09-15T08:36:08.755Z,82.60
2022-09-15T08:37:08.957Z,81.79
2022-09-15T08:38:08.714Z,81.35
2022-09-15T08:39:08.706Z,80.31
2022-09-15T08:40:08.819Z,80.17
2022-09-15T08:41:08.681Z,79.57
2022-09-15T08:42:08.716Z,78.77
2022-09-15T08:43:08.668Z,78.86
2022-09-15T08:44:08.939Z,78.86
2022-09-15T08:45:08.664Z,79.13
2022-09-15T08:46:08.644Z,78.93
2022-09-15T08:47:08.627Z,78.39
2022-09-15T08:48:08.626Z,77.79
2022-09-15T08:49:08.704Z,76.85
2022-09-15T08:50:08.605Z,76.15
2022-09-15T08:51:08.822Z,75.95
2022-09-15T08:52:08.639Z,75.84
2022-09-15T08:53:08.564Z,75.84
2022-09-15T08:54:08.549Z,74.94
2022-09-15T08:55:08.628Z,74.54
2022-09-15T08:56:10.110Z,74.64
2022-09-15T08:57:08.505Z,75.62
2022-09-15T08:58:08.528Z,76.45
2022-09-15T08:59:08.513Z,77.29
2022-09-15T09:00:08.479Z,78.20
2022-09-15T09:01:08.464Z,78.90
2022-09-15T09:02:08.590Z,79.17
2022-09-15T09:03:08.532Z,78.97
2022-09-15T09:04:08.450Z,78.27
2022-09-15T09:05:08.468Z,77.42
2022-09-15T09:06:08.416Z,77.62
2022-09-15T09:07:08.419Z,77.42
2022-09-15T09:08:08.396Z,77.32
2022-09-15T09:09:08.375Z,77.79
2022-09-15T09:10:08.379Z,77.19
2022-09-15T09:11:08.363Z,76.78
2022-09-15T09:12:08.371Z,75.95
2022-09-15T09:13:08.416Z,76.34
2022-09-15T09:14:08.359Z,75.84
2022-09-15T09:15:08.309Z,75.64
2022-09-15T09:16:08.400Z,75.41
2022-09-15T09:17:08.302Z,75.21
2022-09-15T09:18:08.329Z,75.10
2022-09-15T09:19:08.265Z,74.67
2022-09-15T09:20:08.293Z,74.71
2022-09-15T09:21:08.253Z,75.37
2022-09-15T09:22:08.246Z,74.87
2022-09-15T09:23:08.250Z,73.93
2022-09-15T09:24:08.218Z,73.83
2022-09-15T09:25:21.437Z,73.13
2022-09-15T09:26:10.574Z,72.19
2022-09-15T09:27:08.221Z,72.36
2022-09-15T09:28:08.220Z,71.42
2022-09-15T09:29:08.167Z,70.12
2022-09-15T09:30:08.180Z,70.43
2022-09-15T09:31:08.465Z,70.19
2022-09-15T09:32:08.144Z,70.59
2022-09-15T09:33:08.112Z,70.29
2022-09-15T09:34:08.110Z,69.49
2022-09-15T09:35:08.105Z,69.39
2022-09-15T09:36:08.082Z,69.59
2022-09-15T09:37:08.083Z,69.69
2022-09-15T09:38:08.073Z,69.46
2022-09-15T09:39:08.059Z,67.59
2022-09-15T09:40:08.108Z,68.19
2022-09-15T09:41:08.031Z,67.49
2022-09-15T09:42:08.015Z,65.99
2022-09-15T09:43:08.040Z,66.59
2022-09-15T09:44:08.016Z,66.49
2022-09-15T09:45:08.003Z,66.46
2022-09-15T09:46:08.025Z,65.33
2022-09-15T09:47:07.957Z,64.80
2022-09-15T09:48:07.999Z,63.11
2022-09-15T09:49:08.001Z,62.51
2022-09-15T09:50:07.938Z,62.31
2022-09-15T09:51:07.925Z,62.21
2022-09-15T09:52:07.945Z,63.04
2022-09-15T09:53:07.919Z,62.34
2022-09-15T09:54:07.909Z,63.64
2022-09-15T09:55:07.875Z,61.99
2022-09-15T09:56:07.874Z,61.66
2022-09-15T09:57:07.901Z,62.15
2022-09-15T09:58:07.874Z,61.36
2022-09-15T09:59:07.839Z,60.73
2022-09-15T10:00:07.829Z,61.23
2022-09-15T10:01:07.879Z,60.86
2022-09-15T10:02:07.818Z,62.18
2022-09-15T10:03:07.835Z,62.41
2022-09-15T10:04:07.802Z,63.54
2022-09-15T10:05:07.867Z,63.37
2022-09-15T10:06:07.796Z,63.20
2022-09-15T10:07:07.781Z,63.63
2022-09-15T10:08:07.764Z,64.46
2022-09-15T10:09:07.750Z,64.49
2022-09-15T10:10:07.715Z,65.92
2022-09-15T10:11:07.707Z,66.22
2022-09-15T10:12:07.703Z,66.25
2022-09-15T10:13:07.715Z,67.05
2022-09-15T10:14:07.683Z,66.86
2022-09-15T10:15:07.679Z,66.96
2022-09-15T10:16:07.692Z,65.95
2022-09-15T10:17:07.739Z,66.42
2022-09-15T10:18:07.631Z,66.72
2022-09-15T10:19:07.662Z,66.42
2022-09-15T10:20:07.642Z,66.52
2022-09-15T10:21:07.595Z,66.02
2022-09-15T10:22:07.600Z,65.92
2022-09-15T10:23:07.595Z,65.92
2022-09-15T10:24:07.771Z,65.83
2022-09-15T10:25:07.596Z,66.02
2022-09-15T10:26:07.525Z,67.05
2022-09-15T10:27:07.552Z,66.42
2022-09-15T10:28:07.578Z,65.92
2022-09-15T10:29:07.527Z,65.62
2022-09-15T10:30:07.508Z,65.62
2022-09-15T10:31:07.485Z,65.59
2022-09-15T10:32:07.546Z,64.39
2022-09-15T10:33:07.494Z,64.49
2022-09-15T10:34:07.477Z,64.66
2022-09-15T10:35:07.535Z,64.03
2022-09-15T10:36:07.515Z,64.13
2022-09-15T10:37:07.430Z,62.67
2022-09-15T10:38:07.622Z,62.57
2022-09-15T10:39:07.396Z,62.07
2022-09-15T10:40:07.483Z,62.37
2022-09-15T10:41:07.454Z,62.37
2022-09-15T10:42:07.366Z,61.87
2022-09-15T10:43:07.565Z,62.81
2022-09-15T10:44:07.345Z,63.10
2022-09-15T10:45:07.358Z,62.81
2022-09-15T10:46:07.461Z,63.30
2022-09-15T10:47:07.331Z,63.50
2022-09-15T10:48:07.338Z,63.20
2022-09-15T10:49:07.332Z,62.10
2022-09-15T10:50:07.478Z,62.50
2022-09-15T10:51:07.309Z,61.68
2022-09-15T10:52:07.259Z,61.38
2022-09-15T10:53:07.261Z,60.95
2022-09-15T10:54:07.264Z,60.42
2022-09-15T10:55:07.266Z,59.30
2022-09-15T10:56:07.409Z,59.77
2022-09-15T10:57:07.224Z,59.06
2022-09-15T10:58:07.187Z,59.53
2022-09-15T10:59:07.260Z,58.17
2022-09-15T11:00:07.192Z,58.97
2022-09-15T11:01:07.222Z,58.97
2022-09-15T11:02:07.208Z,58.67
2022-09-15T11:03:07.133Z,58.67
2022-09-15T11:04:07.150Z,58.89
2022-09-15T11:05:07.129Z,60.05
2022-09-15T11:06:07.118Z,60.55
2022-09-15T11:07:07.086Z,60.95
2022-09-15T11:08:07.105Z,60.95
2022-09-15T11:09:07.089Z,59.92
2022-09-15T11:10:07.077Z,59.22
2022-09-15T11:11:07.049Z,59.59
2022-09-15T11:12:07.055Z,59.39
2022-09-15T11:13:07.028Z,58.20
2022-09-15T11:14:07.021Z,58.72
2022-09-15T11:15:07.017Z,58.72
2022-09-15T11:16:07.016Z,58.75
2022-09-15T11:17:06.992Z,58.65
2022-09-15T11:18:07.006Z,59.45
2022-09-15T11:19:07.003Z,59.25
2022-09-15T11:20:06.980Z,58.92
2022-09-15T11:21:06.988Z,58.40
2022-09-15T11:22:06.926Z,58.20
2022-09-15T11:23:06.909Z,58.70
2022-09-15T11:24:06.900Z,57.43
2022-09-15T11:25:13.400Z,58.45
2022-09-15T11:26:06.899Z,58.15
2022-09-15T11:27:06.872Z,58.48
2022-09-15T11:28:06.852Z,58.48
2022-09-15T11:29:06.942Z,59.08
2022-09-15T11:30:06.911Z,57.71
2022-09-15T11:31:06.863Z,58.71
2022-09-15T11:32:07.467Z,58.64
2022-09-15T11:33:06.797Z,59.53
2022-09-15T11:34:06.798Z,59.83
2022-09-15T11:35:06.841Z,59.64
2022-09-15T11:36:06.776Z,59.97
2022-09-15T11:37:06.755Z,60.16
2022-09-15T11:38:11.071Z,59.17
2022-09-15T11:39:06.752Z,60.14
2022-09-15T11:40:06.917Z,59.34
2022-09-15T11:41:06.715Z,59.34
2022-09-15T11:42:06.703Z,59.34
2022-09-15T11:43:06.707Z,59.53
2022-09-15T11:44:06.669Z,59.04
2022-09-15T11:45:06.685Z,59.04
2022-09-15T11:46:06.693Z,59.44
2022-09-15T11:47:06.643Z,59.91
2022-09-15T11:48:06.618Z,58.71
2022-09-15T11:49:06.624Z,58.01
2022-09-15T11:50:06.624Z,58.51
2022-09-15T11:51:06.615Z,58.21
2022-09-15T11:52:06.592Z,57.61
2022-09-15T11:53:06.570Z,57.68
2022-09-15T11:54:06.580Z,56.76
2022-09-15T11:55:06.559Z,56.43
2022-09-15T11:56:06.591Z,56.60
2022-09-15T11:57:06.524Z,55.58
2022-09-15T11:58:06.517Z,55.85
2022-09-15T11:59:06.509Z,55.63
2022-09-15T12:00:06.502Z,54.03
2022-09-15T12:01:06.516Z,52.74
2022-09-15T12:02:06.538Z,52.64
2022-09-15T12:03:06.540Z,53.46
2022-09-15T12:04:06.461Z,53.29
2022-09-15T12:05:06.449Z,54.11
2022-09-15T12:06:06.434Z,55.13
2022-09-15T12:07:09.775Z,56.59
2022-09-15T12:08:06.405Z,57.81
2022-09-15T12:09:06.401Z,57.91
2022-09-15T12:10:06.449Z,58.21
2022-09-15T12:11:06.397Z,58.14
2022-09-15T12:12:08.695Z,58.34
2022-09-15T12:13:06.361Z,58.21
2022-09-15T12:14:06.360Z,57.71
2022-09-15T12:15:06.427Z,57.61
2022-09-15T12:16:06.362Z,56.61
2022-09-15T12:17:06.319Z,55.91
2022-09-15T12:18:06.724Z,56.61
2022-09-15T12:19:06.298Z,56.84
2022-09-15T12:20:07.221Z,56.54
2022-09-15T12:21:06.276Z,57.14
2022-09-15T12:22:06.283Z,57.11
2022-09-15T12:23:06.244Z,56.76
2022-09-15T12:24:06.245Z,54.19
2022-09-15T12:25:06.244Z,54.68
2022-09-15T12:26:06.213Z,54.58
2022-09-15T12:27:06.226Z,54.49
2022-09-15T12:28:06.210Z,54.98
2022-09-15T12:29:06.200Z,54.88
2022-09-15T12:30:07.200Z,54.19
2022-09-15T12:31:06.459Z,54.19
2022-09-15T12:32:06.191Z,54.58
2022-09-15T12:33:06.136Z,54.98
2022-09-15T12:34:06.113Z,54.86
2022-09-15T12:35:10.160Z,54.33
2022-09-15T12:36:06.119Z,52.91
2022-09-15T12:37:06.083Z,51.82
2022-09-15T12:38:06.083Z,52.34
2022-09-15T12:39:06.068Z,52.42
2022-09-15T12:40:06.250Z,52.22
2022-09-15T12:41:06.072Z,52.34
2022-09-15T12:42:06.052Z,52.34
2022-09-15T12:43:06.025Z,53.16
2022-09-15T12:44:06.037Z,53.27
2022-09-15T12:45:12.556Z,53.59
2022-09-15T12:46:06.036Z,54.21
2022-09-15T12:47:05.987Z,53.81
2022-09-15T12:48:05.969Z,53.94
2022-09-15T12:49:05.971Z,54.86
2022-09-15T12:50:05.965Z,55.04
2022-09-15T12:51:06.171Z,53.44
2022-09-15T12:52:05.973Z,51.28
2022-09-15T12:53:05.919Z,50.35
2022-09-15T12:54:05.912Z,48.99
2022-09-15T12:55:05.908Z,49.09
2022-09-15T12:56:06.415Z,49.14
2022-09-15T12:57:06.400Z,49.63
2022-09-15T12:58:05.875Z,49.74
2022-09-15T12:59:06.808Z,49.34
2022-09-15T13:00:05.867Z,48.52
2022-09-15T13:01:18.022Z,49.63
2022-09-15T13:02:05.894Z,50.38
2022-09-15T13:03:05.965Z,51.32
2022-09-15T13:04:05.803Z,52.64
2022-09-15T13:05:05.801Z,53.46
2022-09-15T13:06:05.781Z,54.49
2022-09-15T13:07:09.266Z,54.01
2022-09-15T13:08:05.769Z,55.46
2022-09-15T13:09:05.806Z,55.76
2022-09-15T13:10:05.735Z,56.48
2022-09-15T13:11:05.730Z,56.38
2022-09-15T13:12:05.706Z,55.86
2022-09-15T13:13:05.711Z,55.73
2022-09-15T13:14:05.702Z,54.98
2022-09-15T13:15:05.684Z,54.38
2022-09-15T13:16:05.743Z,54.16
2022-09-15T13:17:05.663Z,54.16
2022-09-15T13:18:05.672Z,53.53
2022-09-15T13:19:05.647Z,54.08
2022-09-15T13:20:05.635Z,54.49
2022-09-15T13:21:05.656Z,55.18
2022-09-15T13:22:05.618Z,55.31
2022-09-15T13:23:05.630Z,55.93
2022-09-15T13:24:05.614Z,54.31
2022-09-15T13:25:06.518Z,52.22
2022-09-15T13:26:05.571Z,52.64
2022-09-15T13:27:05.561Z,52.97
2022-09-15T13:28:05.589Z,53.99
2022-09-15T13:29:05.732Z,53.99
2022-09-15T13:30:05.507Z,53.49
2022-09-15T13:31:05.551Z,52.69
2022-09-15T13:32:05.500Z,52.82
2022-09-15T13:33:05.496Z,53.72
2022-09-15T13:35:13.119Z,54.32
2022-09-15T13:36:05.474Z,54.32
2022-09-15T13:38:15.274Z,54.71
2022-09-15T13:39:05.438Z,54.29
2022-09-15T13:40:05.447Z,53.39
2022-09-15T13:41:05.397Z,53.99
2022-09-15T13:42:05.434Z,54.32
2022-09-15T13:43:05.396Z,54.52
2022-09-15T13:44:05.359Z,54.91
2022-09-15T13:45:05.357Z,54.61
2022-09-15T13:46:05.383Z,54.71
2022-09-15T13:47:05.366Z,55.21
2022-09-15T13:48:05.348Z,55.11
2022-09-15T13:49:05.301Z,54.82
2022-09-15T13:50:05.314Z,54.41
2022-09-15T13:51:05.303Z,54.59
2022-09-15T13:52:05.282Z,54.49
2022-09-15T13:53:05.295Z,54.49
2022-09-15T13:54:05.259Z,54.39
2022-09-15T13:55:11.791Z,54.69
2022-09-15T13:56:05.291Z,54.96
2022-09-15T13:57:05.243Z,54.46
2022-09-15T13:59:11.694Z,53.59
2022-09-15T14:00:05.191Z,51.75
2022-09-15T14:01:06.703Z,50.31
2022-09-15T14:02:05.243Z,50.38
2022-09-15T14:03:05.160Z,49.78
2022-09-15T14:04:05.151Z,50.40
2022-09-15T14:05:05.188Z,50.93
2022-09-15T14:06:05.133Z,51.15
2022-09-15T14:07:05.149Z,51.25
2022-09-15T14:08:05.108Z,51.97
2022-09-15T14:09:05.096Z,51.77
2022-09-15T14:10:05.112Z,51.67
2022-09-15T14:11:05.071Z,52.07
2022-09-15T14:12:05.071Z,52.89
2022-09-15T14:13:05.057Z,52.51
2022-09-15T14:14:05.060Z,53.24
2022-09-15T14:15:05.576Z,54.29
2022-09-15T14:16:08.045Z,54.71
2022-09-15T14:17:05.070Z,55.62
2022-09-15T14:18:05.022Z,55.91
2022-09-15T14:19:04.995Z,56.44
2022-09-15T14:20:04.979Z,56.84
2022-09-15T14:21:04.977Z,56.54
2022-09-15T14:22:04.955Z,56.67
2022-09-15T14:23:04.940Z,57.39
2022-09-15T14:24:04.922Z,57.69
2022-09-15T14:25:04.923Z,57.19
2022-09-15T14:26:04.912Z,57.57
2022-09-15T14:27:04.901Z,57.29
2022-09-15T14:28:04.886Z,57.59
2022-09-15T14:29:04.889Z,58.32
2022-09-15T14:30:04.860Z,58.32
2022-09-15T14:31:04.899Z,58.42
2022-09-15T14:32:04.890Z,58.52
2022-09-15T14:33:04.846Z,58.69
2022-09-15T14:34:04.831Z,58.19
2022-09-15T14:35:04.820Z,58.89
2022-09-15T14:36:04.857Z,58.29
2022-09-15T14:37:04.789Z,58.29
2022-09-15T14:38:04.787Z,58.59
2022-09-15T14:39:04.780Z,58.69
2022-09-15T14:40:04.851Z,57.89
2022-09-15T14:41:05.584Z,58.49
2022-09-15T14:42:04.731Z,58.69
2022-09-15T14:43:04.726Z,58.69
2022-09-15T14:44:04.716Z,58.72
2022-09-15T14:46:08.816Z,59.42
2022-09-15T14:47:04.693Z,58.62
2022-09-15T14:48:04.696Z,59.05
2022-09-15T14:49:04.667Z,59.65
2022-09-15T14:50:04.680Z,59.65
2022-09-15T14:51:04.643Z,60.08
2022-09-15T14:52:04.624Z,60.48
2022-09-15T14:53:04.619Z,60.98
2022-09-15T14:54:04.605Z,61.18
2022-09-15T14:55:04.594Z,61.21
2022-09-15T14:56:08.055Z,61.51
2022-09-15T14:57:04.569Z,62.31
2022-09-15T14:58:04.558Z,62.94
2022-09-15T14:59:04.547Z,63.64
2022-09-15T15:00:04.540Z,63.75
2022-09-15T15:01:04.576Z,64.28
2022-09-15T15:02:04.616Z,64.18
2022-09-15T15:03:04.544Z,64.28
2022-09-15T15:04:04.491Z,64.31
2022-09-15T15:05:04.485Z,64.31
2022-09-15T15:06:25.380Z,64.74
2022-09-15T15:07:04.514Z,65.04
2022-09-15T15:08:04.460Z,64.43
2022-09-15T15:09:04.431Z,64.24
2022-09-15T15:10:04.460Z,64.14
2022-09-15T15:11:04.425Z,64.37
2022-09-15T15:12:04.393Z,65.07
2022-09-15T15:13:04.382Z,64.87
2022-09-15T15:14:04.380Z,64.87
2022-09-15T15:15:04.375Z,64.90
2022-09-15T15:16:04.405Z,64.90
2022-09-15T15:17:04.415Z,64.90
2022-09-15T15:18:04.347Z,65.10
2022-09-15T15:19:04.327Z,65.64
2022-09-15T15:20:04.317Z,66.14
2022-09-15T15:21:04.302Z,66.34
2022-09-15T15:22:04.282Z,66.64
2022-09-15T15:23:04.298Z,66.44
2022-09-15T15:24:04.289Z,66.64
2022-09-15T15:25:04.292Z,66.94
2022-09-15T15:26:04.249Z,66.84
2022-09-15T15:27:04.241Z,66.84
2022-09-15T15:28:04.215Z,66.94
2022-09-15T15:29:04.243Z,67.04
2022-09-15T15:30:04.198Z,66.94
2022-09-15T15:31:04.184Z,67.04
2022-09-15T15:32:04.230Z,66.94
2022-09-15T15:33:04.188Z,67.65
2022-09-15T15:34:04.159Z,68.55
2022-09-15T15:35:10.652Z,69.09
2022-09-15T15:36:04.139Z,68.88
2022-09-15T15:37:04.122Z,69.38
2022-09-15T15:38:04.162Z,69.49
2022-09-15T15:39:04.121Z,69.52
2022-09-15T15:40:04.131Z,69.72
2022-09-15T15:41:04.075Z,69.82
2022-09-15T15:42:04.092Z,69.72
2022-09-15T15:43:04.088Z,70.03
2022-09-15T15:44:04.042Z,70.03
2022-09-15T15:45:04.056Z,69.92
2022-09-15T15:46:04.125Z,69.82
2022-09-15T15:47:04.008Z,70.03
2022-09-15T15:48:04.003Z,70.23
2022-09-15T15:49:04.001Z,69.82
2022-09-15T15:50:19.346Z,69.92
2022-09-15T15:51:03.979Z,70.23
2022-09-15T15:52:03.949Z,70.12
2022-09-15T15:53:03.940Z,69.82
2022-09-15T15:54:03.948Z,69.72
2022-09-15T15:55:03.935Z,69.82
2022-09-15T15:56:03.917Z,69.32
2022-09-15T15:57:03.913Z,68.71
2022-09-15T15:58:03.899Z,68.62
2022-09-15T15:59:03.882Z,68.71
2022-09-15T16:00:03.872Z,68.82
2022-09-15T16:01:03.902Z,69.22
2022-09-15T16:02:03.917Z,69.12
2022-09-15T16:03:03.842Z,69.02
2022-09-15T16:04:03.820Z,68.91
2022-09-15T16:05:10.349Z,69.02
2022-09-15T16:06:03.805Z,68.51
2022-09-15T16:07:03.785Z,68.88
2022-09-15T16:08:03.790Z,68.38
2022-09-15T16:09:03.815Z,67.91
2022-09-15T16:10:03.793Z,68.01
2022-09-15T16:11:03.753Z,68.21
2022-09-15T16:12:03.746Z,68.11
2022-09-15T16:13:03.739Z,67.91
2022-09-15T16:14:03.748Z,68.01
2022-09-15T16:15:03.719Z,68.04
2022-09-15T16:16:03.716Z,68.11
2022-09-15T16:17:03.679Z,66.33
2022-09-15T16:18:03.674Z,66.63
2022-09-15T16:19:03.686Z,66.50
2022-09-15T16:20:03.687Z,66.10
2022-09-15T16:21:03.630Z,65.22
2022-09-15T16:22:03.620Z,65.83
2022-09-15T16:23:03.627Z,65.90
2022-09-15T16:24:03.618Z,65.70
2022-09-15T16:25:03.594Z,65.39
2022-09-15T16:26:03.612Z,65.39
2022-09-15T16:27:03.576Z,65.59
2022-09-15T16:28:03.553Z,65.83
2022-09-15T16:29:03.558Z,65.73
2022-09-15T16:30:03.559Z,65.73
2022-09-15T16:31:03.568Z,65.83
2022-09-15T16:32:03.505Z,65.62
2022-09-15T16:33:03.507Z,64.62
2022-09-15T16:34:03.485Z,65.42
2022-09-15T16:35:03.472Z,65.12
2022-09-15T16:36:03.476Z,65.22
2022-09-15T16:37:03.458Z,65.53
2022-09-15T16:38:03.445Z,65.12
2022-09-15T16:39:03.439Z,65.42
2022-09-15T16:40:03.573Z,65.53
2022-09-15T16:41:03.422Z,65.12
2022-09-15T16:42:03.419Z,65.42